Time;durP1;ratioP1;P1;durP2;ratioP2;P2;SDS_P1;SDS_P2;PMS_P1;PMS_P2;Temp;Humidity;BMP_temperature;BMP_pressure;BME280_temperature;BME280_humidity;BME280_pressure;Samples;Min_cycle;Max_cycle;Signal;HPM_P1;HPM_P2
2022/05/19 00:00:23;;;;;;;3.70;3.40;;;16.20;98.70;;;;;;4991802;28;20174;-62
2022/05/19 00:02:49;;;;;;;3.47;3.17;;;16.10;98.80;;;;;;4992746;28;20205;-61
2022/05/19 00:05:15;;;;;;;3.33;3.03;;;16.10;99.30;;;;;;4995328;28;20212;-60
2022/05/19 00:07:41;;;;;;;3.73;3.37;;;16.10;99.30;;;;;;4995501;28;20212;-59
2022/05/19 00:10:07;;;;;;;5.50;3.10;;;16.00;99.40;;;;;;4995351;28;20228;-58
2022/05/19 00:12:33;;;;;;;3.23;2.90;;;16.00;99.40;;;;;;4995338;28;20189;-59
2022/05/19 00:14:59;;;;;;;3.77;2.53;;;16.10;99.90;;;;;;4994900;28;20205;-60
2022/05/19 00:17:25;;;;;;;2.77;2.57;;;16.00;99.90;;;;;;4995157;28;20181;-63
2022/05/19 00:19:51;;;;;;;2.63;2.40;;;15.90;99.90;;;;;;4995169;28;20189;-63
2022/05/19 00:22:17;;;;;;;2.93;2.63;;;15.90;99.90;;;;;;4993836;28;20268;-64
2022/05/19 00:24:43;;;;;;;4.47;2.60;;;15.80;99.90;;;;;;5023265;22;20311;-56
2022/05/19 00:27:08;;;;;;;3.60;2.63;;;15.80;99.90;;;;;;5014294;28;20201;-58
2022/05/19 00:29:34;;;;;;;3.27;2.73;;;15.70;99.90;;;;;;5014326;28;20664;-56
2022/05/19 00:32:00;;;;;;;2.73;2.50;;;15.70;99.90;;;;;;5014278;28;20198;-60
2022/05/19 00:34:26;;;;;;;2.57;2.37;;;15.70;99.90;;;;;;5013825;28;20192;-57
2022/05/19 00:36:59;;;;;;;3.60;2.60;;;15.60;99.90;;;;;;5014106;28;20231;-59
2022/05/19 00:39:27;;;;;;;2.90;2.37;;;15.60;99.90;;;;;;5014149;28;20165;-56
2022/05/19 00:42:43;;;;;;;3.10;2.80;;;15.50;99.90;;;;;;5014195;28;20173;-58
2022/05/19 00:44:40;;;;;;;2.67;2.37;;;15.50;99.90;;;;;;5013629;28;20204;-57
2022/05/19 00:47:12;;;;;;;3.03;2.50;;;15.40;99.90;;;;;;5013871;28;20705;-60
2022/05/19 00:49:42;;;;;;;3.03;2.40;;;15.40;99.90;;;;;;5013957;28;20173;-57
2022/05/19 00:52:12;;;;;;;2.87;2.50;;;15.40;99.90;;;;;;5013969;28;20169;-57
2022/05/19 00:54:50;;;;;;;2.93;2.40;;;15.40;99.90;;;;;;5013463;28;20204;-57
2022/05/19 00:57:21;;;;;;;2.77;2.53;;;15.40;99.90;;;;;;5013849;28;20169;-56
2022/05/19 01:00:05;;;;;;;3.50;2.40;;;15.40;99.90;;;;;;5013774;28;20275;-57
2022/05/19 01:02:37;;;;;;;2.57;2.37;;;15.40;99.90;;;;;;5013583;28;20183;-59
2022/05/19 01:05:04;;;;;;;2.77;2.57;;;15.30;99.90;;;;;;5013337;28;20216;-57
2022/05/19 01:07:36;;;;;;;3.13;2.60;;;15.30;99.90;;;;;;5013519;28;20242;-59
2022/05/19 01:10:04;;;;;;;2.67;2.47;;;15.30;99.90;;;;;;5013478;28;20202;-61
2022/05/19 01:12:30;;;;;;;2.67;2.47;;;15.30;99.90;;;;;;5013545;28;20168;-59
2022/05/19 01:14:56;;;;;;;3.07;2.40;;;15.20;99.90;;;;;;5011891;28;20247;-60
2022/05/19 01:17:23;;;;;;;2.60;2.40;;;15.20;99.90;;;;;;5013334;28;20552;-59
2022/05/19 01:19:56;;;;;;;2.83;2.50;;;15.20;99.90;;;;;;5013380;28;20180;-56
2022/05/19 01:22:30;;;;;;;3.00;2.60;;;15.20;99.90;;;;;;5013357;28;20171;-59
2022/05/19 01:25:12;;;;;;;3.73;2.80;;;15.20;99.90;;;;;;5012803;28;20699;-59
2022/05/19 01:27:38;;;;;;;3.47;2.47;;;15.20;99.90;;;;;;5013217;28;20676;-57
2022/05/19 01:30:08;;;;;;;3.93;2.40;;;15.10;99.90;;;;;;5013203;28;20174;-59
2022/05/19 01:32:33;;;;;;;2.60;2.40;;;15.00;99.90;;;;;;5013059;28;20267;-60
2022/05/19 01:34:59;;;;;;;2.73;2.30;;;15.60;99.90;;;;;;5012717;28;20614;-60
2022/05/19 01:37:26;;;;;;;4.87;2.60;;;15.00;99.90;;;;;;5012947;28;20199;-59
2022/05/19 01:40:06;;;;;;;3.73;2.47;;;15.00;99.90;;;;;;5013029;28;20179;-60
2022/05/19 01:42:42;;;;;;;3.93;2.63;;;14.90;99.90;;;;;;5013005;28;20207;-58
2022/05/19 01:45:29;;;;;;;5.83;2.67;;;14.90;99.90;;;;;;5012624;28;20729;-58
2022/05/19 01:48:04;;;;;;;4.83;2.77;;;14.80;99.90;;;;;;5012776;28;20216;-60
2022/05/19 01:50:40;;;;;;;3.13;2.60;;;14.80;99.90;;;;;;5012833;28;20169;-58
2022/05/19 01:53:33;;;;;;;4.90;2.57;;;14.70;99.90;;;;;;5012770;28;20272;-58
2022/05/19 01:56:09;;;;;;;4.73;2.80;;;14.60;99.90;;;;;;5012576;28;20322;-59
2022/05/19 01:59:08;;;;;;;3.60;2.90;;;14.60;99.90;;;;;;5012634;28;20205;-58
2022/05/19 02:01:34;;;;;;;3.47;2.63;;;14.50;99.90;;;;;;4932785;29;20347;-57
2022/05/19 02:04:08;;;;;;;4.30;3.03;;;14.40;99.90;;;;;;4932459;29;20222;-57
2022/05/19 02:06:45;;;;;;;3.17;2.63;;;14.40;99.90;;;;;;4932685;29;20215;-59
2022/05/19 02:09:18;;;;;;;2.87;2.67;;;14.30;99.90;;;;;;4932717;29;20620;-58
2022/05/19 02:11:49;;;;;;;3.10;2.80;;;14.20;99.90;;;;;;4932790;29;20185;-58
2022/05/19 02:14:19;;;;;;;3.13;2.83;;;14.20;99.90;;;;;;4932127;29;20671;-59
2022/05/19 02:16:45;;;;;;;2.87;2.67;;;14.10;99.90;;;;;;4932350;29;20227;-58
2022/05/19 02:19:13;;;;;;;6.77;3.17;;;14.10;99.90;;;;;;4932376;29;20189;-58
2022/05/19 02:21:39;;;;;;;3.33;2.83;;;14.10;99.90;;;;;;4932479;29;20266;-60
2022/05/19 02:24:06;;;;;;;3.07;2.77;;;14.10;99.90;;;;;;4931935;29;20240;-60
2022/05/19 02:26:37;;;;;;;5.63;3.20;;;14.10;99.90;;;;;;4931731;29;20229;-58
2022/05/19 02:29:08;;;;;;;2.90;2.70;;;14.10;99.90;;;;;;4932320;29;20182;-57
2022/05/19 02:31:34;;;;;;;3.57;3.23;;;14.10;99.90;;;;;;4932401;29;20194;-54
2022/05/19 02:33:59;;;;;;;4.50;2.70;;;14.10;99.90;;;;;;4931985;29;20217;-58
2022/05/19 02:36:25;;;;;;;3.20;2.90;;;14.10;99.90;;;;;;4932219;29;20696;-58
2022/05/19 02:38:51;;;;;;;3.23;2.93;;;14.00;99.90;;;;;;4981509;28;20187;-58
2022/05/19 02:41:16;;;;;;;3.07;2.80;;;14.00;99.90;;;;;;5011930;28;20177;-58
2022/05/19 02:43:42;;;;;;;2.87;2.60;;;14.00;99.90;;;;;;4993950;28;20194;-58
2022/05/19 02:46:08;;;;;;;2.93;2.73;;;13.90;99.90;;;;;;5011671;28;20211;-56
2022/05/19 02:48:33;;;;;;;4.40;2.97;;;13.90;99.90;;;;;;5011778;28;20173;-56
2022/05/19 02:51:00;;;;;;;3.03;2.77;;;13.80;99.90;;;;;;5011772;28;20177;-57
2022/05/19 02:53:26;;;;;;;4.10;2.80;;;13.80;99.90;;;;;;5011452;28;20203;-57
2022/05/19 02:55:52;;;;;;;3.90;2.77;;;13.80;99.90;;;;;;5011477;28;20193;-58
2022/05/19 02:58:18;;;;;;;4.90;2.87;;;13.80;99.90;;;;;;5011629;28;20689;-56
2022/05/19 03:00:45;;;;;;;4.17;2.90;;;13.80;99.90;;;;;;5011577;28;20306;-56
2022/05/19 03:03:12;;;;;;;3.10;2.90;;;13.70;99.90;;;;;;5011634;28;20183;-59
2022/05/19 03:05:38;;;;;;;3.90;2.80;;;13.70;99.90;;;;;;5011077;28;20206;-59
2022/05/19 03:08:05;;;;;;;3.13;2.70;;;13.70;99.90;;;;;;5011522;28;20169;-58
2022/05/19 03:10:31;;;;;;;3.03;2.73;;;13.70;99.90;;;;;;5011587;28;20198;-59
2022/05/19 03:12:57;;;;;;;5.03;2.73;;;13.70;99.90;;;;;;5011448;28;20520;-58
2022/05/19 03:15:24;;;;;;;2.87;2.60;;;13.70;99.90;;;;;;5011105;28;20269;-58
2022/05/19 03:17:49;;;;;;;3.60;3.07;;;13.70;99.90;;;;;;5011461;28;20170;-58
2022/05/19 03:20:15;;;;;;;3.67;2.40;;;13.70;99.90;;;;;;5011459;28;20179;-57
2022/05/19 03:22:41;;;;;;;2.77;2.30;;;13.60;99.90;;;;;;5011393;28;20253;-58
2022/05/19 03:25:07;;;;;;;2.53;2.33;;;13.60;99.90;;;;;;5011017;28;20216;-60
2022/05/19 03:27:34;;;;;;;3.83;2.63;;;13.70;99.90;;;;;;5011127;28;20204;-59
2022/05/19 03:30:00;;;;;;;3.63;2.50;;;13.70;99.90;;;;;;5011429;28;20676;-58
2022/05/19 03:32:26;;;;;;;2.50;2.30;;;13.70;99.90;;;;;;5011349;28;20166;-58
2022/05/19 03:34:51;;;;;;;3.97;2.60;;;13.70;99.90;;;;;;5010942;28;20211;-59
2022/05/19 03:37:17;;;;;;;5.90;2.53;;;14.10;99.90;;;;;;5011348;28;20255;-60
2022/05/19 03:39:43;;;;;;;4.03;2.33;;;13.70;99.90;;;;;;5015267;28;20706;-59
2022/05/19 03:42:09;;;;;;;3.10;2.30;;;13.80;99.90;;;;;;5015153;28;20226;-59
2022/05/19 03:44:36;;;;;;;3.00;2.40;;;13.80;99.90;;;;;;5014835;28;20245;-56
2022/05/19 03:47:03;;;;;;;3.30;2.40;;;13.80;99.90;;;;;;5014979;28;20215;-59
2022/05/19 03:49:28;;;;;;;3.97;2.60;;;13.80;99.90;;;;;;5015020;28;20168;-56
2022/05/19 03:51:54;;;;;;;3.10;2.80;;;14.50;99.90;;;;;;5014976;28;20661;-59
2022/05/19 03:54:20;;;;;;;2.93;2.67;;;13.90;99.90;;;;;;5014615;28;20651;-60
2022/05/19 03:56:45;;;;;;;3.63;2.13;;;13.90;99.90;;;;;;5014823;28;20180;-56
2022/05/19 03:59:11;;;;;;;2.67;2.20;;;13.90;99.90;;;;;;5014902;28;20256;-58
2022/05/19 04:01:37;;;;;;;2.20;2.10;;;13.90;99.90;;;;;;5014867;28;20551;-60
2022/05/19 04:04:03;;;;;;;2.90;2.60;;;13.90;99.90;;;;;;5014497;28;20184;-60
2022/05/19 04:06:29;;;;;;;2.37;2.17;;;14.00;99.90;;;;;;5014556;28;20221;-59
2022/05/19 04:08:54;;;;;;;2.67;2.47;;;14.00;99.90;;;;;;5014631;28;20171;-59
2022/05/19 04:11:20;;;;;;;4.70;2.17;;;14.00;99.90;;;;;;5014599;28;20239;-58
2022/05/19 04:13:45;;;;;;;4.40;2.27;;;14.00;99.90;;;;;;5014623;28;20248;-58
2022/05/19 04:16:11;;;;;;;2.10;2.00;;;13.90;99.90;;;;;;5014531;28;20225;-56
2022/05/19 04:18:38;;;;;;;2.47;2.27;;;14.00;99.90;;;;;;5014489;28;20209;-58
2022/05/19 04:21:04;;;;;;;3.00;2.50;;;13.90;99.90;;;;;;5014524;28;20173;-58
2022/05/19 04:23:30;;;;;;;2.97;2.20;;;13.90;99.90;;;;;;5014202;28;20192;-56
2022/05/19 04:25:56;;;;;;;3.20;2.57;;;14.00;99.90;;;;;;5014115;28;20214;-58
2022/05/19 04:28:22;;;;;;;3.53;2.60;;;13.90;99.90;;;;;;5014334;28;20654;-58
2022/05/19 04:30:47;;;;;;;3.37;2.50;;;13.90;99.90;;;;;;5014377;28;20173;-59
2022/05/19 04:33:13;;;;;;;4.13;3.00;;;13.90;99.90;;;;;;5014178;28;20169;-58
2022/05/19 04:35:39;;;;;;;7.00;3.27;;;15.30;99.90;;;;;;5013829;28;20193;-59
2022/05/19 04:38:10;;;;;;;3.43;2.83;;;13.90;99.90;;;;;;5014171;28;20597;-60
2022/05/19 04:40:38;;;;;;;4.33;3.07;;;13.80;99.90;;;;;;5014146;28;20227;-56
2022/05/19 04:43:05;;;;;;;3.77;3.23;;;13.90;99.90;;;;;;5014161;28;20173;-59
2022/05/19 04:45:30;;;;;;;3.60;3.30;;;13.80;99.90;;;;;;5012903;28;20193;-56
2022/05/19 04:47:56;;;;;;;3.83;3.00;;;13.90;99.90;;;;;;5013934;28;20188;-57
2022/05/19 04:50:21;;;;;;;3.60;2.90;;;14.00;99.90;;;;;;5013606;28;20544;-60
2022/05/19 04:52:47;;;;;;;3.77;2.93;;;14.10;99.90;;;;;;5013937;28;20634;-59
2022/05/19 04:55:13;;;;;;;3.40;2.93;;;14.20;99.90;;;;;;5013453;28;20186;-58
2022/05/19 04:57:42;;;;;;;2.87;2.67;;;14.30;99.90;;;;;;5013880;28;20236;-59
2022/05/19 05:00:10;;;;;;;3.33;2.17;;;14.40;99.90;;;;;;5013825;28;20679;-57
2022/05/19 05:02:36;;;;;;;2.73;2.40;;;14.50;99.90;;;;;;5013744;28;20182;-58
2022/05/19 05:05:02;;;;;;;3.10;2.10;;;14.60;99.90;;;;;;5013299;28;20299;-57
2022/05/19 05:07:27;;;;;;;2.20;2.00;;;14.70;99.90;;;;;;5013526;28;20204;-60
2022/05/19 05:09:53;;;;;;;2.20;2.10;;;14.80;99.90;;;;;;5013595;28;20196;-60
2022/05/19 05:12:18;;;;;;;2.47;2.10;;;14.90;99.90;;;;;;5013773;28;20168;-56
2022/05/19 05:14:44;;;;;;;3.67;2.20;;;15.00;99.90;;;;;;5013212;28;20198;-57
2022/05/19 05:17:09;;;;;;;2.60;2.40;;;15.10;99.90;;;;;;5013285;28;20183;-57
2022/05/19 05:19:35;;;;;;;3.10;1.90;;;15.10;99.90;;;;;;5013415;28;20238;-59
2022/05/19 05:22:00;;;;;;;2.50;2.30;;;15.20;99.90;;;;;;5013380;28;20177;-60
2022/05/19 05:24:26;;;;;;;3.20;2.90;;;15.20;99.90;;;;;;5012807;28;20223;-60
2022/05/19 05:26:52;;;;;;;2.53;2.33;;;15.30;99.90;;;;;;5013203;28;20215;-58
2022/05/19 05:29:19;;;;;;;3.20;2.50;;;15.30;99.90;;;;;;5013308;28;20647;-59
2022/05/19 05:31:45;;;;;;;3.53;2.30;;;15.30;99.90;;;;;;5013254;28;20642;-59
2022/05/19 05:34:11;;;;;;;2.10;2.00;;;15.30;99.90;;;;;;5012782;28;20173;-59
2022/05/19 05:36:37;;;;;;;2.33;2.03;;;15.40;99.90;;;;;;5013069;28;20172;-61
2022/05/19 05:39:03;;;;;;;2.50;2.30;;;15.40;99.90;;;;;;5012932;28;20548;-58
2022/05/19 05:41:28;;;;;;;2.73;2.20;;;15.50;99.90;;;;;;5012970;28;20266;-58
2022/05/19 05:43:54;;;;;;;3.83;3.10;;;15.60;99.90;;;;;;5012688;28;20295;-60
2022/05/19 05:46:19;;;;;;;4.63;3.57;;;15.70;99.90;;;;;;5012789;28;20299;-60
2022/05/19 05:48:48;;;;;;;3.40;3.10;;;15.70;99.90;;;;;;5012836;28;20530;-58
2022/05/19 05:51:15;;;;;;;3.83;3.20;;;15.60;99.90;;;;;;5012887;28;20168;-57
2022/05/19 05:53:43;;;;;;;5.47;3.30;;;15.60;99.90;;;;;;5012472;28;20593;-58
2022/05/19 05:56:11;;;;;;;4.63;3.50;;;15.60;99.90;;;;;;5012786;28;20196;-60
2022/05/19 05:58:37;;;;;;;4.07;3.17;;;15.60;99.90;;;;;;5012595;28;20190;-57
2022/05/19 06:01:05;;;;;;;3.53;3.20;;;15.60;99.90;;;;;;5012209;28;20526;-57
2022/05/19 06:03:32;;;;;;;3.67;3.37;;;15.60;99.90;;;;;;5012061;28;20180;-59
2022/05/19 06:05:58;;;;;;;6.00;3.40;;;15.70;99.90;;;;;;5012356;28;20681;-58
2022/05/19 06:08:23;;;;;;;3.53;3.23;;;15.80;99.90;;;;;;5012753;28;20168;-58
2022/05/19 06:10:49;;;;;;;4.97;3.30;;;16.10;99.90;;;;;;5012498;28;20172;-59
2022/05/19 06:13:15;;;;;;;3.50;3.20;;;15.90;99.90;;;;;;5012488;28;20176;-59
2022/05/19 06:15:42;;;;;;;4.20;3.17;;;15.90;99.90;;;;;;5012133;28;20204;-59
2022/05/19 06:18:07;;;;;;;3.37;3.07;;;16.00;99.90;;;;;;5011627;28;20695;-58
2022/05/19 06:20:34;;;;;;;3.87;3.30;;;16.00;99.90;;;;;;5012340;28;20215;-59
2022/05/19 06:23:00;;;;;;;3.40;3.10;;;15.90;99.90;;;;;;5003601;28;20585;-57
2022/05/19 06:25:26;;;;;;;3.00;2.80;;;15.90;99.90;;;;;;5005270;28;20223;-60
2022/05/19 06:27:54;;;;;;;4.83;3.10;;;15.90;99.90;;;;;;5012066;28;20172;-58
2022/05/19 06:30:20;;;;;;;4.00;3.20;;;16.00;99.90;;;;;;5012625;28;20165;-57
2022/05/19 06:32:50;;;;;;;3.70;3.00;;;16.20;99.90;;;;;;5011718;28;20259;-59
2022/05/19 06:35:27;;;;;;;3.67;3.27;;;16.30;99.90;;;;;;5011721;28;20288;-58
2022/05/19 06:37:54;;;;;;;4.33;3.03;;;16.50;99.90;;;;;;5011715;28;20184;-59
2022/05/19 06:40:20;;;;;;;2.80;2.60;;;16.50;99.90;;;;;;4994027;28;20184;-59
2022/05/19 06:42:47;;;;;;;3.33;2.90;;;16.50;99.90;;;;;;5011756;28;20226;-59
2022/05/19 06:45:19;;;;;;;3.03;2.43;;;16.60;99.90;;;;;;5011608;28;20323;-58
2022/05/19 06:47:44;;;;;;;3.10;2.40;;;16.60;99.90;;;;;;5011546;28;20562;-59
2022/05/19 06:50:11;;;;;;;2.90;2.63;;;16.80;99.90;;;;;;5011435;28;20188;-58
2022/05/19 06:53:03;;;;;;;2.83;2.53;;;16.90;99.90;;;;;;5010864;28;20183;-59
2022/05/19 06:55:32;;;;;;;3.23;2.50;;;17.10;99.90;;;;;;5006712;28;20207;-58
2022/05/19 06:57:58;;;;;;;2.77;2.43;;;17.20;99.90;;;;;;5009997;28;20291;-59
2022/05/19 07:00:26;;;;;;;5.23;2.53;;;17.40;99.90;;;;;;5011145;28;20645;-60
2022/05/19 07:02:56;;;;;;;2.37;2.17;;;17.60;99.90;;;;;;5011664;28;20176;-60
2022/05/19 07:05:25;;;;;;;2.60;2.40;;;17.80;99.90;;;;;;5011264;28;20203;-58
2022/05/19 07:07:51;;;;;;;4.13;2.70;;;17.90;99.90;;;;;;5011585;28;20227;-59
2022/05/19 07:10:19;;;;;;;3.53;2.40;;;18.10;99.90;;;;;;5011623;28;20178;-60
2022/05/19 07:12:45;;;;;;;4.03;2.57;;;18.30;99.90;;;;;;5011506;28;20189;-60
2022/05/19 07:15:12;;;;;;;5.53;2.60;;;18.20;99.90;;;;;;5011419;28;20203;-59
2022/05/19 07:17:38;;;;;;;3.57;2.33;;;18.30;99.90;;;;;;5011517;28;20171;-57
2022/05/19 07:22:50;;;;;;;2.90;2.20;;;18.50;99.90;;;;;;5011520;28;20188;-60
2022/05/19 07:25:16;;;;;;;3.37;2.00;;;18.60;99.90;;;;;;5011033;28;20208;-56
2022/05/19 07:27:42;;;;;;;2.63;2.40;;;18.50;99.90;;;;;;5011288;28;20203;-60
2022/05/19 07:30:09;;;;;;;3.53;2.30;;;18.60;99.90;;;;;;5010793;28;20262;-60
2022/05/19 07:32:35;;;;;;;3.10;2.20;;;18.80;99.90;;;;;;5011286;28;20534;-59
2022/05/19 07:35:02;;;;;;;2.27;2.07;;;18.80;99.90;;;;;;5011034;28;20196;-59
2022/05/19 07:37:28;;;;;;;2.93;2.00;;;18.90;99.90;;;;;;5011311;28;20177;-56
2022/05/19 07:39:54;;;;;;;3.07;2.43;;;18.90;99.90;;;;;;5011707;28;20192;-57
2022/05/19 07:42:19;;;;;;;4.07;2.37;;;19.00;99.90;;;;;;5011396;28;20183;-60
2022/05/19 07:44:46;;;;;;;3.60;2.40;;;19.00;99.90;;;;;;5010950;28;20196;-59
2022/05/19 07:47:12;;;;;;;4.70;2.30;;;19.10;99.90;;;;;;5011178;28;20685;-57
2022/05/19 07:49:37;;;;;;;2.63;2.43;;;19.10;99.90;;;;;;5011318;28;20251;-57
2022/05/19 07:52:04;;;;;;;3.40;2.07;;;19.20;99.90;;;;;;5011085;28;20538;-59
2022/05/19 07:54:30;;;;;;;3.53;2.20;;;19.40;99.90;;;;;;5010615;28;20197;-58
2022/05/19 07:56:56;;;;;;;3.87;2.40;;;19.50;99.90;;;;;;5010998;28;20181;-57
2022/05/19 07:59:22;;;;;;;2.93;2.47;;;19.50;99.90;;;;;;5010982;28;20708;-58
2022/05/19 08:01:48;;;;;;;2.53;2.30;;;19.60;99.90;;;;;;4993850;28;20180;-59
2022/05/19 08:04:15;;;;;;;2.60;2.40;;;19.70;99.90;;;;;;4993457;28;20243;-59
2022/05/19 08:06:41;;;;;;;4.13;2.30;;;19.90;99.90;;;;;;4993944;28;20228;-59
2022/05/19 08:11:52;;;;;;;2.70;2.30;;;20.20;99.90;;;;;;5011294;28;20215;-59
2022/05/19 08:17:04;;;;;;;4.50;2.30;;;20.50;99.90;;;;;;5010959;28;20230;-59
2022/05/19 08:19:30;;;;;;;2.47;2.23;;;20.70;99.90;;;;;;5010910;28;20279;-59
2022/05/19 08:21:56;;;;;;;2.40;2.20;;;20.90;99.90;;;;;;5010940;28;20227;-60
2022/05/19 08:24:24;;;;;;;2.47;2.28;;;21.00;99.90;;;;;;5012271;28;20184;-59
2022/05/19 08:26:50;;;;;;;2.50;2.10;;;21.00;99.90;;;;;;5014324;28;20326;-59
2022/05/19 08:29:18;;;;;;;2.92;2.30;;;21.00;99.90;;;;;;5014408;28;20315;-60
2022/05/19 08:31:45;;;;;;;3.47;2.30;;;21.00;99.90;;;;;;5014296;28;20184;-60
2022/05/19 08:34:11;;;;;;;2.53;2.30;;;21.30;99.90;;;;;;5013952;28;20200;-58
2022/05/19 08:36:37;;;;;;;2.85;2.08;;;21.50;99.90;;;;;;5014276;28;20181;-58
2022/05/19 08:39:02;;;;;;;3.13;2.47;;;21.60;99.90;;;;;;5011037;28;20186;-60
2022/05/19 08:41:35;;;;;;;2.40;2.10;;;21.90;99.90;;;;;;5015463;28;20190;-59
2022/05/19 08:44:11;;;;;;;2.25;1.70;;;22.10;99.90;;;;;;5011949;28;20180;-59
2022/05/19 08:46:41;;;;;;;3.13;2.28;;;22.00;99.90;;;;;;5011952;28;20286;-59
2022/05/19 08:49:22;;;;;;;4.07;2.05;;;22.00;99.90;;;;;;5013627;28;20651;-59
2022/05/19 08:51:55;;;;;;;4.75;2.40;;;21.80;99.90;;;;;;5014080;28;20637;-59
2022/05/19 08:54:23;;;;;;;3.75;2.30;;;21.90;99.90;;;;;;5013582;28;20245;-59
2022/05/19 08:57:01;;;;;;;3.90;2.60;;;22.00;99.90;;;;;;5013905;28;20538;-61
2022/05/19 09:00:07;;;;;;;2.38;2.00;;;22.00;99.90;;;;;;5013876;28;20175;-60
2022/05/19 09:03:04;;;;;;;2.60;2.00;;;22.00;99.90;;;;;;4934177;29;20183;-60
2022/05/19 09:05:56;;;;;;;2.20;2.00;;;22.00;99.90;;;;;;4929316;29;20217;-59
2022/05/19 09:08:36;;;;;;;2.22;2.03;;;22.10;99.90;;;;;;4928861;29;20585;-60
2022/05/19 09:11:22;;;;;;;3.30;2.35;;;22.40;99.90;;;;;;4941885;29;20191;-60
2022/05/19 09:14:06;;;;;;;2.20;1.90;;;22.50;99.90;;;;;;4936888;29;20186;-60
2022/05/19 09:16:34;;;;;;;3.55;2.10;;;22.40;99.90;;;;;;4941633;29;20190;-59
2022/05/19 09:19:30;;;;;;;2.60;2.30;;;22.40;99.90;;;;;;4931955;29;20191;-59
2022/05/19 09:22:17;;;;;;;2.72;2.40;;;22.40;99.90;;;;;;4929977;29;20819;-60
2022/05/19 09:24:46;;;;;;;2.60;2.33;;;22.50;99.90;;;;;;4921773;29;20234;-60
2022/05/19 09:27:12;;;;;;;4.05;2.70;;;22.60;99.90;;;;;;4929860;29;20226;-57
2022/05/19 09:29:42;;;;;;;4.68;2.40;;;22.70;99.90;;;;;;4934839;29;20191;-58
2022/05/19 09:32:12;;;;;;;2.65;2.25;;;22.90;99.90;;;;;;4937441;29;20175;-60
2022/05/19 09:34:38;;;;;;;4.32;2.08;;;23.00;99.90;;;;;;4938011;29;20239;-57
2022/05/19 09:37:11;;;;;;;3.17;2.33;;;23.30;99.90;;;;;;4989067;28;20281;-55
2022/05/19 09:39:48;;;;;;;2.83;2.25;;;23.50;99.90;;;;;;5012802;28;20180;-54
2022/05/19 09:42:19;;;;;;;2.22;1.98;;;23.80;99.90;;;;;;4997745;28;20208;-54
2022/05/19 09:44:50;;;;;;;2.53;1.83;;;23.80;99.90;;;;;;5012190;28;20254;-54
2022/05/19 09:47:30;;;;;;;2.67;1.95;;;23.80;99.90;;;;;;5014031;28;20429;-55
2022/05/19 09:50:05;;;;;;;3.80;2.35;;;23.90;99.90;;;;;;5012456;28;20682;-57
2022/05/19 09:52:32;;;;;;;5.60;2.05;;;23.90;99.90;;;;;;5012521;28;20287;-52
2022/05/19 09:55:08;;;;;;;3.38;1.98;;;23.80;99.90;;;;;;5011991;28;20188;-55
2022/05/19 09:57:42;;;;;;;5.97;2.30;;;23.80;99.90;;;;;;5012369;28;20180;-49
2022/05/19 10:00:31;;;;;;;2.30;2.10;;;23.80;99.90;;;;;;4995741;28;20176;-57
2022/05/19 10:03:00;;;;;;;2.20;2.00;;;23.90;99.90;;;;;;5003164;28;20246;-52
2022/05/19 10:05:46;;;;;;;2.42;2.10;;;24.00;99.90;;;;;;5011568;28;20338;-51
2022/05/19 10:08:26;;;;;;;3.17;2.28;;;24.20;99.90;;;;;;4997033;28;20263;-55
2022/05/19 10:11:01;;;;;;;2.35;1.90;;;24.30;99.90;;;;;;5012023;28;20184;-56
2022/05/19 10:13:32;;;;;;;1.85;1.73;;;24.40;99.90;;;;;;5011814;28;20176;-53
2022/05/19 10:16:05;;;;;;;3.97;2.28;;;24.50;99.90;;;;;;5011808;28;20677;-55
2022/05/19 10:18:41;;;;;;;4.38;1.90;;;24.80;99.90;;;;;;5011842;28;20238;-58
2022/05/19 10:21:27;;;;;;;2.85;2.10;;;24.90;99.50;;;;;;5011899;28;20176;-55
2022/05/19 10:24:33;;;;;;;2.72;2.20;;;24.90;99.90;;;;;;5009963;28;20184;-48
2022/05/19 10:33:42;;;;;;;3.10;2.00;;;25.70;99.20;;;;;;4992591;28;20184;-57
2022/05/19 10:36:20;;;;;;;3.03;2.35;;;26.00;98.80;;;;;;4991436;28;20245;-52
2022/05/19 10:39:08;;;;;;;2.20;2.00;;;26.00;97.90;;;;;;4999108;28;20188;-52
2022/05/19 10:41:49;;;;;;;3.17;2.17;;;25.90;98.30;;;;;;5002519;28;20189;-53
2022/05/19 10:44:33;;;;;;;3.08;2.00;;;25.80;98.10;;;;;;5002072;28;20164;-48
2022/05/19 10:47:08;;;;;;;4.53;2.13;;;25.80;97.60;;;;;;5001150;28;20188;-56
2022/05/19 10:49:53;;;;;;;5.05;2.30;;;26.10;96.60;;;;;;5002320;28;20172;-54
2022/05/19 10:52:58;;;;;;;2.58;1.90;;;25.90;96.10;;;;;;5001818;28;20175;-56
2022/05/19 10:55:54;;;;;;;2.13;1.90;;;26.00;97.60;;;;;;4918464;29;20213;-52
2022/05/19 10:58:42;;;;;;;2.88;1.80;;;26.10;97.50;;;;;;4908276;29;20184;-56
2022/05/19 11:01:17;;;;;;;3.13;1.90;;;26.00;97.00;;;;;;4912978;29;20204;-52
2022/05/19 11:04:24;;;;;;;2.03;1.83;;;26.00;95.30;;;;;;4912640;29;20687;-51
2022/05/19 11:07:18;;;;;;;2.67;2.00;;;26.10;96.90;;;;;;4912842;29;20220;-55
2022/05/19 11:10:12;;;;;;;2.10;1.90;;;26.20;95.50;;;;;;4912881;29;20675;-54
2022/05/19 11:13:26;;;;;;;3.53;1.70;;;26.40;95.60;;;;;;4912918;29;20263;-56
2022/05/19 11:15:58;;;;;;;3.45;2.00;;;26.70;95.60;;;;;;4916806;29;20904;-52
2022/05/19 11:18:27;;;;;;;2.80;2.00;;;26.90;96.10;;;;;;4922387;29;20686;-50
2022/05/19 11:20:55;;;;;;;4.80;2.10;;;27.20;95.50;;;;;;4919450;29;20184;-55
2022/05/19 11:23:37;;;;;;;3.67;1.75;;;27.20;94.80;;;;;;4922043;29;20296;-52
2022/05/19 11:26:24;;;;;;;4.07;1.85;;;26.80;94.30;;;;;;4922685;29;20226;-57
2022/05/19 11:28:50;;;;;;;3.42;2.10;;;26.80;95.30;;;;;;4923087;29;20175;-51
2022/05/19 11:31:32;;;;;;;3.15;1.98;;;26.80;94.20;;;;;;4923260;28;20259;-56
2022/05/19 11:34:00;;;;;;;1.63;1.52;;;26.80;92.80;;;;;;5000472;28;20596;-54
2022/05/19 11:36:41;;;;;;;2.03;1.73;;;26.90;92.70;;;;;;5002951;28;20204;-55
2022/05/19 11:39:51;;;;;;;3.60;2.05;;;27.00;93.60;;;;;;5002451;28;20185;-57
2022/05/19 11:42:20;;;;;;;3.03;1.95;;;26.90;92.80;;;;;;4902318;29;20263;-53
2022/05/19 11:44:46;;;;;;;1.85;1.70;;;27.10;94.10;;;;;;4909572;29;20280;-54
2022/05/19 11:56:00;;;;;;;3.03;1.80;;;27.40;93.60;;;;;;4912100;29;20219;-49
2022/05/19 11:58:29;;;;;;;2.00;1.70;;;27.50;90.80;;;;;;4906707;29;20663;-54
2022/05/19 12:01:06;;;;;;;2.17;1.80;;;27.50;91.40;;;;;;4906251;29;20213;-52
2022/05/19 12:03:50;;;;;;;3.05;2.03;;;27.50;90.50;;;;;;4911827;29;20184;-54
2022/05/19 12:06:20;;;;;;;1.83;1.73;;;27.40;91.70;;;;;;4912731;29;20336;-58
2022/05/19 12:08:55;;;;;;;3.92;1.75;;;27.40;93.50;;;;;;4915262;29;20269;-51
2022/05/19 12:11:40;;;;;;;1.40;1.30;;;27.40;91.00;;;;;;4912206;29;20227;-52
2022/05/19 12:14:15;;;;;;;2.20;1.73;;;27.40;92.10;;;;;;4914928;29;20191;-56
2022/05/19 12:16:52;;;;;;;2.08;1.88;;;27.40;90.40;;;;;;4973750;28;20180;-56
2022/05/19 12:19:38;;;;;;;2.10;1.90;;;27.50;92.90;;;;;;5001349;28;20172;-55
2022/05/19 12:22:25;;;;;;;2.25;1.75;;;27.60;92.50;;;;;;5011200;28;21699;-54
2022/05/19 12:25:20;;;;;;;2.38;1.90;;;27.80;94.90;;;;;;5010490;28;20220;-54
2022/05/19 12:28:25;;;;;;;1.85;1.52;;;28.00;90.60;;;;;;5006821;28;20703;-55
2022/05/19 12:36:34;;;;;;;1.67;1.50;;;27.90;91.00;;;;;;5017191;28;20755;-58
2022/05/19 12:39:26;;;;;;;1.70;1.60;;;27.90;92.10;;;;;;5027378;28;20185;-53
2022/05/19 12:41:55;;;;;;;1.75;1.63;;;28.20;90.70;;;;;;5029614;28;20195;-61
2022/05/19 12:44:39;;;;;;;2.08;1.88;;;28.20;90.20;;;;;;5023938;28;20677;-57
2022/05/19 12:47:32;;;;;;;3.22;1.65;;;28.40;89.20;;;;;;5008092;28;20244;-61
2022/05/19 12:50:19;;;;;;;2.13;1.50;;;28.50;87.40;;;;;;5005606;28;20791;-56
2022/05/19 12:53:04;;;;;;;1.73;1.63;;;28.50;87.80;;;;;;5009511;28;20184;-60
2022/05/19 12:55:41;;;;;;;1.58;1.48;;;28.40;85.70;;;;;;5009238;28;20690;-60
2022/05/19 12:58:32;;;;;;;2.30;1.92;;;28.40;89.50;;;;;;5009938;28;20184;-60
2022/05/19 13:01:09;;;;;;;2.80;1.60;;;28.60;92.30;;;;;;5012494;28;20200;-53
2022/05/19 13:03:37;;;;;;;1.80;1.55;;;28.60;90.50;;;;;;5005523;28;20181;-59
2022/05/19 13:06:09;;;;;;;2.05;1.70;;;28.70;86.60;;;;;;5012902;28;20711;-59
2022/05/19 13:08:41;;;;;;;1.88;1.77;;;28.90;91.90;;;;;;5013692;28;20180;-57
2022/05/19 13:11:13;;;;;;;2.50;1.60;;;29.10;86.50;;;;;;5013163;28;20173;-52
2022/05/19 13:13:43;;;;;;;1.77;1.63;;;29.00;84.10;;;;;;5013191;28;20200;-60
2022/05/19 13:16:20;;;;;;;1.88;1.30;;;29.00;84.00;;;;;;5011809;28;20185;-56
2022/05/19 13:18:58;;;;;;;1.95;1.63;;;29.10;84.20;;;;;;5009348;28;20192;-61
2022/05/19 13:21:37;;;;;;;1.92;1.48;;;29.20;81.00;;;;;;5011713;28;20184;-61
2022/05/19 13:24:07;;;;;;;3.40;1.92;;;29.30;83.20;;;;;;5012654;28;20184;-55
2022/05/19 13:26:39;;;;;;;1.52;1.35;;;29.40;84.70;;;;;;4997320;28;20208;-56
2022/05/19 13:32:02;;;;;;;3.90;1.80;;;29.70;82.00;;;;;;4994141;28;20235;-56
2022/05/19 13:34:49;;;;;;;2.65;1.83;;;29.80;81.10;;;;;;4993242;28;20570;-58
2022/05/19 13:37:32;;;;;;;2.10;1.80;;;29.50;80.20;;;;;;5010469;28;20712;-59
2022/05/19 13:40:29;;;;;;;2.90;1.40;;;29.30;81.50;;;;;;5013282;28;20176;-61
2022/05/19 13:43:02;;;;;;;1.63;1.50;;;29.30;85.10;;;;;;5013860;28;20654;-59